sensor_id;sensor_type;location;lat;lon;timestamp;pressure;altitude;pressure_sealevel;temperature;humidity
19112;BME280;9688;51.906;8.376;2023-03-26T00:01:27;99763.16;;;9.31;100.00
19112;BME280;9688;51.906;8.376;2023-03-26T00:04:17;99766.72;;;9.30;100.00
19112;BME280;9688;51.906;8.376;2023-03-26T00:07:04;99778.88;;;9.34;100.00
19112;BME280;9688;51.906;8.376;2023-03-26T00:09:50;99776.94;;;9.37;100.00
19112;BME280;9688;51.906;8.376;2023-03-26T00:12:36;99776.69;;;9.42;100.00
19112;BME280;9688;51.906;8.376;2023-03-26T00:15:23;99777.47;;;9.44;100.00
19112;BME280;9688;51.906;8.376;2023-03-26T00:18:09;99785.50;;;9.43;100.00
19112;BME280;9688;51.906;8.376;2023-03-26T00:20:55;99791.63;;;9.43;100.00
19112;BME280;9688;51.906;8.376;2023-03-26T00:23:42;99784.75;;;9.39;100.00
19112;BME280;9688;51.906;8.376;2023-03-26T00:26:29;99784.69;;;9.41;100.00
19112;BME280;9688;51.906;8.376;2023-03-26T00:29:15;99787.25;;;9.42;100.00
19112;BME280;9688;51.906;8.376;2023-03-26T00:32:03;99787.88;;;9.47;100.00
19112;BME280;9688;51.906;8.376;2023-03-26T00:34:49;99797.38;;;9.51;100.00
19112;BME280;9688;51.906;8.376;2023-03-26T00:37:35;99799.09;;;9.52;100.00
19112;BME280;9688;51.906;8.376;2023-03-26T00:40:21;99784.19;;;9.51;100.00
19112;BME280;9688;51.906;8.376;2023-03-26T00:43:08;99791.25;;;9.51;100.00
19112;BME280;9688;51.906;8.376;2023-03-26T00:46:02;99794.09;;;9.46;100.00
19112;BME280;9688;51.906;8.376;2023-03-26T00:48:49;99795.03;;;9.45;100.00
19112;BME280;9688;51.906;8.376;2023-03-26T00:51:35;99796.88;;;9.43;100.00
19112;BME280;9688;51.906;8.376;2023-03-26T00:54:22;99801.22;;;9.44;100.00
19112;BME280;9688;51.906;8.376;2023-03-26T00:57:08;99796.75;;;9.46;100.00
19112;BME280;9688;51.906;8.376;2023-03-26T00:59:56;99794.03;;;9.48;100.00
19112;BME280;9688;51.906;8.376;2023-03-26T01:02:42;99798.59;;;9.44;100.00
19112;BME280;9688;51.906;8.376;2023-03-26T01:05:51;99796.19;;;9.40;100.00
19112;BME280;9688;51.906;8.376;2023-03-26T01:08:39;99795.25;;;9.41;100.00
19112;BME280;9688;51.906;8.376;2023-03-26T01:11:28;99801.31;;;9.43;100.00
19112;BME280;9688;51.906;8.376;2023-03-26T01:14:16;99798.72;;;9.41;100.00
19112;BME280;9688;51.906;8.376;2023-03-26T01:17:04;99798.88;;;9.38;100.00
19112;BME280;9688;51.906;8.376;2023-03-26T01:19:56;99785.75;;;9.36;100.00
19112;BME280;9688;51.906;8.376;2023-03-26T01:22:48;99785.00;;;9.34;100.00
19112;BME280;9688;51.906;8.376;2023-03-26T01:25:40;99795.69;;;9.31;100.00
19112;BME280;9688;51.906;8.376;2023-03-26T01:28:31;99785.13;;;9.31;100.00
19112;BME280;9688;51.906;8.376;2023-03-26T01:31:24;99786.00;;;9.32;100.00
19112;BME280;9688;51.906;8.376;2023-03-26T01:34:19;99787.84;;;9.30;100.00
19112;BME280;9688;51.906;8.376;2023-03-26T01:37:14;99784.34;;;9.29;100.00
19112;BME280;9688;51.906;8.376;2023-03-26T01:40:08;99780.91;;;9.27;100.00
19112;BME280;9688;51.906;8.376;2023-03-26T01:43:06;99779.22;;;9.26;100.00
19112;BME280;9688;51.906;8.376;2023-03-26T01:45:55;99783.56;;;9.27;100.00
19112;BME280;9688;51.906;8.376;2023-03-26T01:48:44;99769.38;;;9.30;100.00
19112;BME280;9688;51.906;8.376;2023-03-26T01:51:32;99764.09;;;9.30;100.00
19112;BME280;9688;51.906;8.376;2023-03-26T01:54:21;99772.06;;;9.28;100.00
19112;BME280;9688;51.906;8.376;2023-03-26T01:57:14;99759.91;;;9.26;100.00
19112;BME280;9688;51.906;8.376;2023-03-26T02:00:19;99759.19;;;9.22;100.00
19112;BME280;9688;51.906;8.376;2023-03-26T02:03:18;99759.19;;;9.22;100.00
19112;BME280;9688;51.906;8.376;2023-03-26T02:06:09;99763.59;;;9.22;100.00
19112;BME280;9688;51.906;8.376;2023-03-26T02:09:02;99758.25;;;9.23;100.00
19112;BME280;9688;51.906;8.376;2023-03-26T02:11:50;99755.47;;;9.26;100.00
19112;BME280;9688;51.906;8.376;2023-03-26T02:14:36;99756.25;;;9.28;100.00
19112;BME280;9688;51.906;8.376;2023-03-26T02:17:23;99750.13;;;9.28;100.00
19112;BME280;9688;51.906;8.376;2023-03-26T02:20:10;99750.06;;;9.29;100.00
19112;BME280;9688;51.906;8.376;2023-03-26T02:22:58;99744.69;;;9.31;100.00
19112;BME280;9688;51.906;8.376;2023-03-26T02:25:44;99742.06;;;9.31;100.00
19112;BME280;9688;51.906;8.376;2023-03-26T02:28:30;99740.16;;;9.34;100.00
19112;BME280;9688;51.906;8.376;2023-03-26T02:31:16;99735.72;;;9.35;100.00
19112;BME280;9688;51.906;8.376;2023-03-26T02:34:06;99738.28;;;9.36;100.00
19112;BME280;9688;51.906;8.376;2023-03-26T02:36:51;99732.00;;;9.39;100.00
19112;BME280;9688;51.906;8.376;2023-03-26T02:39:37;99726.56;;;9.42;100.00
19112;BME280;9688;51.906;8.376;2023-03-26T02:42:23;99720.38;;;9.43;100.00
19112;BME280;9688;51.906;8.376;2023-03-26T02:45:08;99724.66;;;9.46;100.00
19112;BME280;9688;51.906;8.376;2023-03-26T02:47:54;99722.03;;;9.46;100.00
19112;BME280;9688;51.906;8.376;2023-03-26T02:50:42;99716.66;;;9.47;100.00
19112;BME280;9688;51.906;8.376;2023-03-26T02:53:28;99715.66;;;9.50;100.00
19112;BME280;9688;51.906;8.376;2023-03-26T02:56:14;99712.97;;;9.51;100.00
19112;BME280;9688;51.906;8.376;2023-03-26T02:58:59;99715.44;;;9.54;100.00
19112;BME280;9688;51.906;8.376;2023-03-26T03:01:45;99710.16;;;9.54;100.00
19112;BME280;9688;51.906;8.376;2023-03-26T03:04:31;99715.34;;;9.56;100.00
19112;BME280;9688;51.906;8.376;2023-03-26T03:07:19;99702.25;;;9.54;100.00
19112;BME280;9688;51.906;8.376;2023-03-26T03:10:08;99696.81;;;9.57;100.00
19112;BME280;9688;51.906;8.376;2023-03-26T03:12:58;99693.41;;;9.55;100.00
19112;BME280;9688;51.906;8.376;2023-03-26T03:15:44;99697.66;;;9.58;100.00
19112;BME280;9688;51.906;8.376;2023-03-26T03:18:29;99685.25;;;9.60;100.00
19112;BME280;9688;51.906;8.376;2023-03-26T03:21:15;99678.19;;;9.60;100.00
19112;BME280;9688;51.906;8.376;2023-03-26T03:24:02;99684.31;;;9.61;100.00
19112;BME280;9688;51.906;8.376;2023-03-26T03:26:48;99677.97;;;9.65;100.00
19112;BME280;9688;51.906;8.376;2023-03-26T03:29:39;99680.47;;;9.68;100.00
19112;BME280;9688;51.906;8.376;2023-03-26T03:32:26;99680.38;;;9.70;100.00
19112;BME280;9688;51.906;8.376;2023-03-26T03:35:12;99682.94;;;9.71;100.00
19112;BME280;9688;51.906;8.376;2023-03-26T03:37:58;99677.59;;;9.73;100.00
19112;BME280;9688;51.906;8.376;2023-03-26T03:40:46;99674.09;;;9.72;100.00
19112;BME280;9688;51.906;8.376;2023-03-26T03:43:32;99681.00;;;9.75;100.00
19112;BME280;9688;51.906;8.376;2023-03-26T03:46:18;99676.66;;;9.74;100.00
19112;BME280;9688;51.906;8.376;2023-03-26T03:49:03;99681.16;;;9.72;100.00
19112;BME280;9688;51.906;8.376;2023-03-26T03:51:49;99674.03;;;9.74;100.00
19112;BME280;9688;51.906;8.376;2023-03-26T03:54:35;99671.59;;;9.69;100.00
19112;BME280;9688;51.906;8.376;2023-03-26T03:57:23;99674.34;;;9.68;100.00
19112;BME280;9688;51.906;8.376;2023-03-26T04:00:10;99674.41;;;9.66;100.00
19112;BME280;9688;51.906;8.376;2023-03-26T04:02:58;99664.78;;;9.65;100.00
19112;BME280;9688;51.906;8.376;2023-03-26T04:05:49;99659.56;;;9.64;100.00
19112;BME280;9688;51.906;8.376;2023-03-26T04:08:38;99655.06;;;9.66;100.00
19112;BME280;9688;51.906;8.376;2023-03-26T04:11:23;99655.06;;;9.66;100.00
19112;BME280;9688;51.906;8.376;2023-03-26T04:14:11;99644.38;;;9.69;100.00
19112;BME280;9688;51.906;8.376;2023-03-26T04:16:56;99641.66;;;9.70;100.00
19112;BME280;9688;51.906;8.376;2023-03-26T04:19:42;99648.63;;;9.71;100.00
19112;BME280;9688;51.906;8.376;2023-03-26T04:22:31;99640.56;;;9.74;100.00
19112;BME280;9688;51.906;8.376;2023-03-26T04:25:18;99639.56;;;9.77;100.00
19112;BME280;9688;51.906;8.376;2023-03-26T04:28:06;99632.47;;;9.77;100.00
19112;BME280;9688;51.906;8.376;2023-03-26T04:30:57;99637.53;;;9.82;100.00
19112;BME280;9688;51.906;8.376;2023-03-26T04:33:46;99629.53;;;9.83;100.00
19112;BME280;9688;51.906;8.376;2023-03-26T04:36:33;99634.13;;;9.80;100.00
19112;BME280;9688;51.906;8.376;2023-03-26T04:39:19;99628.94;;;9.78;100.00
19112;BME280;9688;51.906;8.376;2023-03-26T04:42:07;99630.78;;;9.76;100.00
19112;BME280;9688;51.906;8.376;2023-03-26T04:44:54;99629.16;;;9.74;100.00
19112;BME280;9688;51.906;8.376;2023-03-26T04:47:44;99635.28;;;9.74;100.00
19112;BME280;9688;51.906;8.376;2023-03-26T04:50:31;99618.28;;;9.80;100.00
19112;BME280;9688;51.906;8.376;2023-03-26T04:53:19;99622.66;;;9.81;100.00
19112;BME280;9688;51.906;8.376;2023-03-26T04:56:10;99618.06;;;9.85;100.00
19112;BME280;9688;51.906;8.376;2023-03-26T04:59:01;99616.25;;;9.85;100.00
19112;BME280;9688;51.906;8.376;2023-03-26T05:01:47;99611.81;;;9.86;100.00
19112;BME280;9688;51.906;8.376;2023-03-26T05:04:35;99606.53;;;9.86;100.00
19112;BME280;9688;51.906;8.376;2023-03-26T05:07:23;99609.19;;;9.86;99.57
19112;BME280;9688;51.906;8.376;2023-03-26T05:10:11;99604.75;;;9.86;100.00
19112;BME280;9688;51.906;8.376;2023-03-26T05:12:59;99605.63;;;9.87;99.67
19112;BME280;9688;51.906;8.376;2023-03-26T05:15:48;99600.25;;;9.88;99.73
19112;BME280;9688;51.906;8.376;2023-03-26T05:18:34;99604.53;;;9.91;99.45
19112;BME280;9688;51.906;8.376;2023-03-26T05:21:21;99602.66;;;9.93;99.30
19112;BME280;9688;51.906;8.376;2023-03-26T05:24:07;99604.31;;;9.95;99.23
19112;BME280;9688;51.906;8.376;2023-03-26T05:26:53;99598.13;;;9.95;98.92
19112;BME280;9688;51.906;8.376;2023-03-26T05:29:39;99591.94;;;9.96;99.92
19112;BME280;9688;51.906;8.376;2023-03-26T05:32:25;99591.84;;;9.97;99.43
19112;BME280;9688;51.906;8.376;2023-03-26T05:35:11;99584.81;;;9.98;99.00
19112;BME280;9688;51.906;8.376;2023-03-26T05:38:00;99581.38;;;9.96;98.61
19112;BME280;9688;51.906;8.376;2023-03-26T05:40:46;99576.16;;;9.94;99.03
19112;BME280;9688;51.906;8.376;2023-03-26T05:43:32;99577.97;;;9.94;99.08
19112;BME280;9688;51.906;8.376;2023-03-26T05:46:19;99578.13;;;9.91;99.53
19112;BME280;9688;51.906;8.376;2023-03-26T05:49:06;99585.03;;;9.93;98.65
19112;BME280;9688;51.906;8.376;2023-03-26T05:51:52;99576.28;;;9.93;98.59
19112;BME280;9688;51.906;8.376;2023-03-26T05:54:40;99576.28;;;9.93;98.81
19112;BME280;9688;51.906;8.376;2023-03-26T05:57:28;99567.50;;;9.92;99.00
19112;BME280;9688;51.906;8.376;2023-03-26T06:00:16;99570.03;;;9.94;98.49
19112;BME280;9688;51.906;8.376;2023-03-26T06:03:02;99569.81;;;9.98;98.03
19112;BME280;9688;51.906;8.376;2023-03-26T06:05:48;99566.22;;;9.99;98.08
19112;BME280;9688;51.906;8.376;2023-03-26T06:08:34;99566.91;;;10.03;97.94
19112;BME280;9688;51.906;8.376;2023-03-26T06:11:21;99558.13;;;10.02;98.39
19112;BME280;9688;51.906;8.376;2023-03-26T06:14:07;99555.34;;;10.05;98.59
19112;BME280;9688;51.906;8.376;2023-03-26T06:16:52;99552.63;;;10.07;98.19
19112;BME280;9688;51.906;8.376;2023-03-26T06:19:38;99541.97;;;10.09;97.32
19112;BME280;9688;51.906;8.376;2023-03-26T06:22:24;99542.56;;;10.14;97.96
19112;BME280;9688;51.906;8.376;2023-03-26T06:25:10;99541.56;;;10.16;96.96
19112;BME280;9688;51.906;8.376;2023-03-26T06:27:57;99542.34;;;10.18;97.51
19112;BME280;9688;51.906;8.376;2023-03-26T06:30:43;99540.31;;;10.23;97.82
19112;BME280;9688;51.906;8.376;2023-03-26T06:33:28;99540.94;;;10.29;96.37
19112;BME280;9688;51.906;8.376;2023-03-26T06:36:14;99539.03;;;10.31;96.87
19112;BME280;9688;51.906;8.376;2023-03-26T06:39:00;99541.44;;;10.35;96.87
19112;BME280;9688;51.906;8.376;2023-03-26T06:41:46;99537.59;;;10.41;96.79
19112;BME280;9688;51.906;8.376;2023-03-26T06:44:33;99537.19;;;10.48;96.39
19112;BME280;9688;51.906;8.376;2023-03-26T06:47:19;99535.81;;;10.57;95.58
19112;BME280;9688;51.906;8.376;2023-03-26T06:50:06;99525.69;;;10.65;95.81
19112;BME280;9688;51.906;8.376;2023-03-26T06:52:52;99525.44;;;10.70;95.69
19112;BME280;9688;51.906;8.376;2023-03-26T06:55:38;99520.13;;;10.70;95.60
19112;BME280;9688;51.906;8.376;2023-03-26T06:58:25;99520.88;;;10.72;94.59
19112;BME280;9688;51.906;8.376;2023-03-26T07:01:12;99517.22;;;10.75;95.56
19112;BME280;9688;51.906;8.376;2023-03-26T07:03:58;99517.97;;;10.77;94.72
19112;BME280;9688;51.906;8.376;2023-03-26T07:06:45;99513.53;;;10.77;95.26
19112;BME280;9688;51.906;8.376;2023-03-26T07:09:31;99510.72;;;10.80;94.63
19112;BME280;9688;51.906;8.376;2023-03-26T07:12:16;99509.69;;;10.83;93.83
19112;BME280;9688;51.906;8.376;2023-03-26T07:15:03;99505.84;;;10.88;94.22
19112;BME280;9688;51.906;8.376;2023-03-26T07:17:51;99504.94;;;10.89;93.35
19112;BME280;9688;51.906;8.376;2023-03-26T07:20:37;99498.69;;;10.90;92.87
19112;BME280;9688;51.906;8.376;2023-03-26T07:23:25;99501.94;;;10.96;92.82
19112;BME280;9688;51.906;8.376;2023-03-26T07:26:20;99499.94;;;10.99;92.55
19112;BME280;9688;51.906;8.376;2023-03-26T07:29:13;99498.84;;;11.03;92.37
19112;BME280;9688;51.906;8.376;2023-03-26T07:32:10;99490.53;;;11.09;91.41
19112;BME280;9688;51.906;8.376;2023-03-26T07:35:05;99494.44;;;11.18;91.13
19112;BME280;9688;51.906;8.376;2023-03-26T07:38:17;99486.41;;;11.20;92.01
19112;BME280;9688;51.906;8.376;2023-03-26T07:41:11;99483.78;;;11.20;91.24
19112;BME280;9688;51.906;8.376;2023-03-26T07:44:10;99479.22;;;11.22;91.84
19112;BME280;9688;51.906;8.376;2023-03-26T07:47:14;99484.13;;;11.28;91.74
19112;BME280;9688;51.906;8.376;2023-03-26T07:50:14;99477.06;;;11.28;91.01
19112;BME280;9688;51.906;8.376;2023-03-26T07:53:01;99477.66;;;11.33;90.87
19112;BME280;9688;51.906;8.376;2023-03-26T07:55:52;99476.44;;;11.39;91.29
19112;BME280;9688;51.906;8.376;2023-03-26T07:58:47;99487.50;;;11.46;91.15
19112;BME280;9688;51.906;8.376;2023-03-26T08:01:47;99481.25;;;11.47;90.27
19112;BME280;9688;51.906;8.376;2023-03-26T08:04:58;99478.97;;;11.55;89.96
19112;BME280;9688;51.906;8.376;2023-03-26T08:07:59;99482.31;;;11.58;90.64
19112;BME280;9688;51.906;8.376;2023-03-26T08:11:03;99478.06;;;11.56;90.54
19112;BME280;9688;51.906;8.376;2023-03-26T08:13:59;99467.94;;;11.63;89.93
19112;BME280;9688;51.906;8.376;2023-03-26T08:16:52;99462.25;;;11.69;90.34
19112;BME280;9688;51.906;8.376;2023-03-26T08:20:02;99462.84;;;11.74;89.57
19112;BME280;9688;51.906;8.376;2023-03-26T08:22:59;99467.00;;;11.78;89.29
19112;BME280;9688;51.906;8.376;2023-03-26T08:25:54;99462.00;;;11.88;89.11
19112;BME280;9688;51.906;8.376;2023-03-26T08:28:56;99466.06;;;11.93;88.36
19112;BME280;9688;51.906;8.376;2023-03-26T08:31:45;99461.50;;;12.10;87.74
19112;BME280;9688;51.906;8.376;2023-03-26T08:34:32;99465.75;;;12.12;88.28
19112;BME280;9688;51.906;8.376;2023-03-26T08:37:18;99462.22;;;12.26;87.73
19112;BME280;9688;51.906;8.376;2023-03-26T08:40:08;99454.88;;;12.44;86.91
19112;BME280;9688;51.906;8.376;2023-03-26T08:43:14;99451.31;;;12.58;86.78
19112;BME280;9688;51.906;8.376;2023-03-26T08:50:14;99446.50;;;12.64;86.57
19112;BME280;9688;51.906;8.376;2023-03-26T08:53:25;99444.81;;;12.76;85.96
19112;BME280;9688;51.906;8.376;2023-03-26T08:56:23;99443.47;;;12.83;85.82
19112;BME280;9688;51.906;8.376;2023-03-26T09:02:56;99438.13;;;12.70;85.68
19112;BME280;9688;51.906;8.376;2023-03-26T09:13:04;99432.66;;;12.86;85.00
19112;BME280;9688;51.906;8.376;2023-03-26T09:16:26;99425.84;;;12.82;84.35
19112;BME280;9688;51.906;8.376;2023-03-26T09:19:52;99415.75;;;12.75;84.76
19112;BME280;9688;51.906;8.376;2023-03-26T09:23:12;99423.97;;;12.57;85.23
19112;BME280;9688;51.906;8.376;2023-03-26T09:26:24;99413.13;;;12.47;85.48
19112;BME280;9688;51.906;8.376;2023-03-26T09:29:35;99424.13;;;12.41;85.72
19112;BME280;9688;51.906;8.376;2023-03-26T09:36:09;99415.09;;;12.31;85.22
19112;BME280;9688;51.906;8.376;2023-03-26T09:39:08;99417.06;;;12.27;85.16
19112;BME280;9688;51.906;8.376;2023-03-26T09:42:07;99403.19;;;12.24;85.70
19112;BME280;9688;51.906;8.376;2023-03-26T09:45:25;99410.69;;;12.17;85.82
19112;BME280;9688;51.906;8.376;2023-03-26T09:51:58;99412.16;;;12.21;85.17
19112;BME280;9688;51.906;8.376;2023-03-26T09:55:12;99414.81;;;12.21;84.35
19112;BME280;9688;51.906;8.376;2023-03-26T09:58:23;99411.13;;;12.24;84.76
19112;BME280;9688;51.906;8.376;2023-03-26T10:01:14;99405.28;;;12.19;84.41
19112;BME280;9688;51.906;8.376;2023-03-26T10:04:37;99402.81;;;12.16;85.02
19112;BME280;9688;51.906;8.376;2023-03-26T10:10:54;99399.78;;;12.22;84.98
19112;BME280;9688;51.906;8.376;2023-03-26T10:13:52;99405.06;;;12.22;84.13
19112;BME280;9688;51.906;8.376;2023-03-26T10:16:50;99406.50;;;12.13;83.99
19112;BME280;9688;51.906;8.376;2023-03-26T10:19:52;99404.91;;;12.11;84.61
19112;BME280;9688;51.906;8.376;2023-03-26T10:22:55;99405.31;;;12.04;84.70
19112;BME280;9688;51.906;8.376;2023-03-26T10:25:57;99401.91;;;12.02;85.66
19112;BME280;9688;51.906;8.376;2023-03-26T10:29:08;99402.66;;;12.04;86.07
19112;BME280;9688;51.906;8.376;2023-03-26T10:32:09;99404.06;;;12.10;85.68
19112;BME280;9688;51.906;8.376;2023-03-26T10:35:18;99402.38;;;12.09;85.76
19112;BME280;9688;51.906;8.376;2023-03-26T10:38:13;99405.22;;;12.06;86.05
19112;BME280;9688;51.906;8.376;2023-03-26T10:41:04;99398.88;;;12.09;86.78
19112;BME280;9688;51.906;8.376;2023-03-26T10:47:21;99405.31;;;12.04;86.70
19112;BME280;9688;51.906;8.376;2023-03-26T10:53:12;99407.16;;;11.90;87.91
19112;BME280;9688;51.906;8.376;2023-03-26T10:56:08;99410.66;;;11.90;88.05
19112;BME280;9688;51.906;8.376;2023-03-26T10:59:03;99399.78;;;11.95;88.16
19112;BME280;9688;51.906;8.376;2023-03-26T11:01:58;99393.03;;;12.03;89.45
19112;BME280;9688;51.906;8.376;2023-03-26T11:04:51;99401.41;;;12.10;89.35
19112;BME280;9688;51.906;8.376;2023-03-26T11:07:44;99393.06;;;12.16;89.32
19112;BME280;9688;51.906;8.376;2023-03-26T11:10:39;99388.66;;;12.17;89.76
19112;BME280;9688;51.906;8.376;2023-03-26T11:13:37;99392.91;;;12.19;88.94
19112;BME280;9688;51.906;8.376;2023-03-26T11:16:34;99388.72;;;12.15;89.76
19112;BME280;9688;51.906;8.376;2023-03-26T11:19:27;99391.75;;;12.23;89.48
19112;BME280;9688;51.906;8.376;2023-03-26T11:22:22;99397.38;;;12.32;88.88
19112;BME280;9688;51.906;8.376;2023-03-26T11:25:33;99392.53;;;12.38;88.53
19112;BME280;9688;51.906;8.376;2023-03-26T11:28:34;99378.34;;;12.39;88.28
19112;BME280;9688;51.906;8.376;2023-03-26T11:31:33;99381.63;;;12.43;88.10
19112;BME280;9688;51.906;8.376;2023-03-26T11:34:25;99389.38;;;12.46;88.52
19112;BME280;9688;51.906;8.376;2023-03-26T11:37:16;99386.63;;;12.47;88.67
19112;BME280;9688;51.906;8.376;2023-03-26T11:40:17;99387.63;;;12.32;88.45
19112;BME280;9688;51.906;8.376;2023-03-26T11:43:11;99387.28;;;12.24;88.61
19112;BME280;9688;51.906;8.376;2023-03-26T11:46:02;99387.47;;;12.21;88.48
19112;BME280;9688;51.906;8.376;2023-03-26T11:48:55;99379.81;;;12.16;89.16
19112;BME280;9688;51.906;8.376;2023-03-26T11:51:46;99374.94;;;12.10;89.08
19112;BME280;9688;51.906;8.376;2023-03-26T11:54:32;99386.69;;;12.06;89.15
19112;BME280;9688;51.906;8.376;2023-03-26T11:57:21;99382.72;;;11.99;89.96
19112;BME280;9688;51.906;8.376;2023-03-26T12:00:15;99386.22;;;11.99;90.58
19112;BME280;9688;51.906;8.376;2023-03-26T12:03:14;99380.19;;;11.97;90.58
19112;BME280;9688;51.906;8.376;2023-03-26T12:06:00;99381.88;;;11.98;90.80
19112;BME280;9688;51.906;8.376;2023-03-26T12:08:47;99374.78;;;11.99;90.57
19112;BME280;9688;51.906;8.376;2023-03-26T12:11:35;99379.78;;;12.03;90.30
19112;BME280;9688;51.906;8.376;2023-03-26T12:14:27;99374.28;;;12.07;91.04
19112;BME280;9688;51.906;8.376;2023-03-26T12:17:26;99378.81;;;12.04;90.86
19112;BME280;9688;51.906;8.376;2023-03-26T12:20:33;99377.03;;;12.05;91.76
19112;BME280;9688;51.906;8.376;2023-03-26T12:23:33;99374.38;;;12.05;91.06
19112;BME280;9688;51.906;8.376;2023-03-26T12:26:30;99368.22;;;12.04;91.54
19112;BME280;9688;51.906;8.376;2023-03-26T12:29:17;99372.88;;;12.01;91.59
19112;BME280;9688;51.906;8.376;2023-03-26T12:32:11;99373.94;;;11.98;91.74
19112;BME280;9688;51.906;8.376;2023-03-26T12:35:03;99374.78;;;11.99;91.51
19112;BME280;9688;51.906;8.376;2023-03-26T12:37:50;99365.34;;;11.95;91.90
19112;BME280;9688;51.906;8.376;2023-03-26T12:40:37;99367.44;;;11.90;92.13
19112;BME280;9688;51.906;8.376;2023-03-26T12:43:28;99369.56;;;11.83;91.99
19112;BME280;9688;51.906;8.376;2023-03-26T12:46:23;99376.06;;;11.65;92.17
19112;BME280;9688;51.906;8.376;2023-03-26T12:49:11;99373.97;;;11.55;92.67
19112;BME280;9688;51.906;8.376;2023-03-26T12:52:00;99379.06;;;11.44;92.52
19112;BME280;9688;51.906;8.376;2023-03-26T12:54:57;99379.06;;;11.30;92.26
19112;BME280;9688;51.906;8.376;2023-03-26T12:57:53;99373.97;;;11.12;92.53
19112;BME280;9688;51.906;8.376;2023-03-26T13:00:50;99372.19;;;11.13;92.75
19112;BME280;9688;51.906;8.376;2023-03-26T13:04:00;99371.78;;;11.19;92.12
19112;BME280;9688;51.906;8.376;2023-03-26T13:06:56;99373.22;;;11.25;91.61
19112;BME280;9688;51.906;8.376;2023-03-26T13:09:55;99369.44;;;11.29;91.51
19112;BME280;9688;51.906;8.376;2023-03-26T13:13:03;99375.78;;;11.26;91.87
19112;BME280;9688;51.906;8.376;2023-03-26T13:15:58;99370.38;;;11.13;92.30
19112;BME280;9688;51.906;8.376;2023-03-26T13:18:49;99376.69;;;10.97;92.01
19112;BME280;9688;51.906;8.376;2023-03-26T13:21:47;99378.34;;;10.83;91.95
19112;BME280;9688;51.906;8.376;2023-03-26T13:24:48;99372.78;;;10.74;93.37
19112;BME280;9688;51.906;8.376;2023-03-26T13:27:43;99364.38;;;10.67;93.20
19112;BME280;9688;51.906;8.376;2023-03-26T13:30:36;99373.34;;;10.64;94.20
19112;BME280;9688;51.906;8.376;2023-03-26T13:33:39;99369.16;;;10.60;94.39
19112;BME280;9688;51.906;8.376;2023-03-26T13:36:34;99371.81;;;10.60;94.23
19112;BME280;9688;51.906;8.376;2023-03-26T13:39:29;99365.50;;;10.63;95.24
19112;BME280;9688;51.906;8.376;2023-03-26T13:42:35;99368.97;;;10.63;94.66
19112;BME280;9688;51.906;8.376;2023-03-26T13:45:38;99367.84;;;10.53;95.74
19112;BME280;9688;51.906;8.376;2023-03-26T13:48:29;99366.84;;;10.40;95.19
19112;BME280;9688;51.906;8.376;2023-03-26T13:51:22;99357.72;;;10.30;95.77
19112;BME280;9688;51.906;8.376;2023-03-26T13:54:15;99362.50;;;10.23;96.05
19112;BME280;9688;51.906;8.376;2023-03-26T13:57:06;99358.31;;;10.19;96.58
19112;BME280;9688;51.906;8.376;2023-03-26T13:59:59;99358.41;;;10.17;97.46
19112;BME280;9688;51.906;8.376;2023-03-26T14:02:55;99353.63;;;10.08;97.24
19112;BME280;9688;51.906;8.376;2023-03-26T14:05:45;99356.47;;;10.05;97.52
19112;BME280;9688;51.906;8.376;2023-03-26T14:08:36;99355.44;;;10.08;97.89
19112;BME280;9688;51.906;8.376;2023-03-26T14:11:33;99358.41;;;10.17;98.43
19112;BME280;9688;51.906;8.376;2023-03-26T14:14:30;99354.81;;;10.18;98.03
19112;BME280;9688;51.906;8.376;2023-03-26T14:17:22;99354.47;;;10.24;98.58
19112;BME280;9688;51.906;8.376;2023-03-26T14:20:26;99353.28;;;10.30;97.43
19112;BME280;9688;51.906;8.376;2023-03-26T14:27:04;99341.63;;;10.34;97.53
19112;BME280;9688;51.906;8.376;2023-03-26T14:30:19;99349.44;;;10.36;97.00
19112;BME280;9688;51.906;8.376;2023-03-26T14:33:25;99353.81;;;10.37;95.83
19112;BME280;9688;51.906;8.376;2023-03-26T14:36:24;99353.88;;;10.35;95.96
19112;BME280;9688;51.906;8.376;2023-03-26T14:39:41;99362.66;;;10.36;95.84
19112;BME280;9688;51.906;8.376;2023-03-26T14:42:37;99362.50;;;10.23;95.76
19112;BME280;9688;51.906;8.376;2023-03-26T14:45:49;99362.34;;;10.10;95.54
19112;BME280;9688;51.906;8.376;2023-03-26T14:48:50;99367.31;;;10.00;94.84
19112;BME280;9688;51.906;8.376;2023-03-26T14:51:48;99365.56;;;9.99;95.28
19112;BME280;9688;51.906;8.376;2023-03-26T14:54:43;99371.03;;;9.96;95.21
19112;BME280;9688;51.906;8.376;2023-03-26T14:57:57;99373.91;;;9.92;95.99
19112;BME280;9688;51.906;8.376;2023-03-26T15:01:19;99373.34;;;9.87;96.00
19112;BME280;9688;51.906;8.376;2023-03-26T15:04:36;99376.31;;;9.80;96.54
19112;BME280;9688;51.906;8.376;2023-03-26T15:11:16;99387.78;;;9.64;97.96
19112;BME280;9688;51.906;8.376;2023-03-26T15:14:44;99388.31;;;9.54;98.28
19112;BME280;9688;51.906;8.376;2023-03-26T15:18:10;99395.25;;;9.40;97.98
19112;BME280;9688;51.906;8.376;2023-03-26T15:21:49;99392.81;;;9.19;99.39
19112;BME280;9688;51.906;8.376;2023-03-26T15:35:23;99412.31;;;8.99;99.60
19112;BME280;9688;51.906;8.376;2023-03-26T15:41:40;99414.53;;;8.89;100.00
19112;BME280;9688;51.906;8.376;2023-03-26T15:44:42;99417.34;;;8.86;99.81
19112;BME280;9688;51.906;8.376;2023-03-26T15:47:51;99428.19;;;8.80;99.09
19112;BME280;9688;51.906;8.376;2023-03-26T15:50:52;99423.09;;;8.77;99.07
19112;BME280;9688;51.906;8.376;2023-03-26T15:53:48;99417.88;;;8.76;99.06
19112;BME280;9688;51.906;8.376;2023-03-26T15:56:52;99435.25;;;8.80;98.55
19112;BME280;9688;51.906;8.376;2023-03-26T15:59:52;99434.78;;;8.71;98.72
19112;BME280;9688;51.906;8.376;2023-03-26T16:02:46;99437.47;;;8.70;98.60
19112;BME280;9688;51.906;8.376;2023-03-26T16:05:48;99437.41;;;8.71;98.58
19112;BME280;9688;51.906;8.376;2023-03-26T16:08:42;99454.16;;;8.70;98.11
19112;BME280;9688;51.906;8.376;2023-03-26T16:11:47;99446.47;;;8.66;98.83
19112;BME280;9688;51.906;8.376;2023-03-26T16:14:41;99453.53;;;8.65;98.12
19112;BME280;9688;51.906;8.376;2023-03-26T16:24:24;99468.56;;;8.63;97.45
19112;BME280;9688;51.906;8.376;2023-03-26T16:27:30;99462.28;;;8.66;97.66
19112;BME280;9688;51.906;8.376;2023-03-26T16:30:29;99477.16;;;8.67;96.73
19112;BME280;9688;51.906;8.376;2023-03-26T16:33:17;99474.63;;;8.65;96.68